createdAt,value
2022-09-14T04:10:09.298Z,0.373
2022-09-14T04:15:09.419Z,1.12
2022-09-14T04:20:09.457Z,2.988
2022-09-14T04:25:09.601Z,7.47
2022-09-14T04:30:09.661Z,13.819
2022-09-14T04:35:09.805Z,20.169
2022-09-14T04:40:09.987Z,38.47
2022-09-14T04:45:10.014Z,64.989
2022-09-14T04:50:10.119Z,116.532
2022-09-14T04:55:10.251Z,182.268
2022-09-14T05:00:10.362Z,295.812
2022-09-14T05:05:10.455Z,397.404
2022-09-14T05:10:10.598Z,484.056
2022-09-14T05:15:10.641Z,654.372
2022-09-14T05:20:10.758Z,818.712
2022-09-14T05:25:10.882Z,872.496
2022-09-14T05:30:10.985Z,1003.968
2022-09-14T05:35:11.076Z,1278.864
2022-09-14T05:40:11.271Z,1625.472
2022-09-14T05:45:11.290Z,1661.328
2022-09-14T05:50:11.407Z,1721.088
2022-09-14T05:55:11.526Z,1756.944
2022-09-14T06:00:11.639Z,1482.048
2022-09-14T06:05:11.844Z,1649.376
2022-09-14T06:10:11.817Z,2175.264
2022-09-14T06:15:11.930Z,2617.488
2022-09-14T06:18:41.188Z,2964.096
2022-09-14T06:21:39.683Z,3179.232
2022-09-14T06:28:20.924Z,2916.288
2022-09-14T06:33:21.052Z,3442.176
2022-09-14T06:38:21.125Z,2737.008
2022-09-14T06:43:21.252Z,2521.872
2022-09-14T06:48:21.347Z,2940.192
2022-09-14T06:53:21.477Z,2139.408
2022-09-14T06:58:41.766Z,1936.224
2022-09-14T07:03:41.906Z,2641.392
2022-09-14T07:08:42.023Z,3298.752
2022-09-14T07:13:42.131Z,3872.448
2022-09-14T07:18:42.270Z,3274.848
2022-09-14T07:23:43.231Z,3322.656
2022-09-14T07:28:42.534Z,3585.6
2022-09-14T07:33:42.619Z,4517.856
2022-09-14T07:38:51.954Z,4398.336
2022-09-14T07:43:42.839Z,4661.28
2022-09-14T07:47:59.941Z,3023.856
2022-09-14T07:52:53.044Z,3872.448
2022-09-14T08:00:20.503Z,3657.312
2022-09-14T08:05:01.241Z,3418.272
2022-09-14T08:09:31.485Z,2725.056
2022-09-14T08:12:09.627Z,2844.576
2022-09-14T08:15:08.209Z,3991.968
2022-09-14T08:18:06.745Z,4709.088
2022-09-14T08:24:33.361Z,5306.688
2022-09-14T08:30:03.714Z,6167.232
2022-09-14T08:36:15.004Z,5426.208
2022-09-14T08:39:27.138Z,6549.696
2022-09-14T08:43:11.543Z,6047.712
2022-09-14T08:46:25.336Z,6406.272
2022-09-14T08:49:03.514Z,4709.088
2022-09-14T08:52:42.874Z,5330.592
2022-09-14T08:58:02.928Z,4159.296
2022-09-14T09:01:06.758Z,5999.904
2022-09-14T09:03:44.998Z,9179.136
2022-09-14T09:07:44.774Z,8987.904
2022-09-14T09:14:26.496Z,8222.976
2022-09-14T09:19:16.587Z,9179.136
2022-09-14T09:22:37.739Z,7553.664
2022-09-14T09:25:15.927Z,6645.312
2022-09-14T09:30:15.308Z,6932.16
2022-09-14T09:35:15.321Z,7601.472
2022-09-14T09:40:15.517Z,7410.24
2022-09-14T09:47:33.686Z,4900.32
2022-09-14T09:50:41.503Z,5904.288
2022-09-14T09:54:41.233Z,6884.352
2022-09-14T09:58:25.669Z,7840.512
2022-09-14T10:02:44.294Z,10087.488
2022-09-14T10:05:37.903Z,11999.808
2022-09-14T10:09:19.345Z,11999.808
2022-09-14T10:13:24.513Z,8940.096
2022-09-14T10:16:02.695Z,7171.2
2022-09-14T10:19:43.842Z,5689.152
2022-09-14T10:23:13.062Z,6215.04
2022-09-14T10:26:06.541Z,6693.12
2022-09-14T10:30:01.181Z,7314.624
2022-09-14T10:34:05.951Z,7792.704
2022-09-14T10:38:46.543Z,7314.624
2022-09-14T10:41:34.863Z,6932.16
2022-09-14T10:45:34.967Z,9370.368
2022-09-14T10:50:55.480Z,12047.616
2022-09-14T10:53:56.911Z,7505.856
2022-09-14T10:58:57.017Z,7027.776
2022-09-14T11:02:46.143Z,5641.344
2022-09-14T11:05:20.422Z,4111.488
2022-09-14T11:11:11.506Z,5091.552
2022-09-14T11:17:27.262Z,5019.84
2022-09-14T11:22:27.419Z,5474.016
2022-09-14T11:25:15.820Z,5856.48
2022-09-14T11:27:53.986Z,6693.12
2022-09-14T11:31:06.647Z,9991.872
2022-09-14T11:33:45.931Z,12191.04
2022-09-14T11:38:21.388Z,12334.464
2022-09-14T11:42:05.845Z,10756.8
2022-09-14T11:48:43.008Z,10087.488
2022-09-14T11:51:30.492Z,11234.88
2022-09-14T11:56:21.665Z,11282.688
2022-09-14T12:00:06.264Z,8318.592
2022-09-14T12:03:48.541Z,7936.128
2022-09-14T12:09:05.331Z,8270.784
2022-09-14T12:13:38.858Z,7553.664
2022-09-14T12:16:17.150Z,8079.552
2022-09-14T12:21:21.395Z,7697.088
2022-09-14T12:26:44.364Z,4948.128
2022-09-14T12:30:08.953Z,6979.968
2022-09-14T12:34:54.668Z,9800.64
2022-09-14T12:38:23.840Z,9848.448
2022-09-14T12:43:33.694Z,11426.112
2022-09-14T12:48:33.823Z,11139.264
2022-09-14T12:52:58.908Z,13768.704
2022-09-14T12:57:13.069Z,15298.56
2022-09-14T13:02:13.225Z,14055.552
2022-09-14T13:06:33.325Z,14246.784
2022-09-14T13:11:43.682Z,16924.032
2022-09-14T13:14:45.037Z,21513.6
2022-09-14T13:19:45.136Z,21417.984
2022-09-14T13:24:58.654Z,24477.696
2022-09-14T13:27:55.144Z,21131.136
2022-09-14T13:31:00.914Z,15967.872
2022-09-14T13:37:36.975Z,15681.024
2022-09-14T13:41:01.338Z,11282.688
2022-09-14T13:43:44.650Z,8270.784
2022-09-14T13:46:48.396Z,4493.952
2022-09-14T13:50:07.355Z,3729.024
2022-09-14T13:57:09.486Z,3418.272
2022-09-14T14:00:28.129Z,5617.44
2022-09-14T14:03:49.253Z,8796.672
2022-09-14T14:07:09.413Z,8222.976
2022-09-14T14:09:56.675Z,4183.2
2022-09-14T14:13:47.832Z,3011.904
2022-09-14T14:18:47.927Z,1637.424
2022-09-14T14:23:21.112Z,2689.2
2022-09-14T14:28:22.022Z,2677.248
2022-09-14T14:33:21.428Z,1984.032
2022-09-14T14:38:21.433Z,2784.816
2022-09-14T14:40:54.696Z,2760.912
2022-09-14T14:45:58.922Z,2677.248
2022-09-14T14:50:58.883Z,2211.12
2022-09-14T14:53:42.225Z,2677.248
2022-09-14T14:58:52.331Z,1888.416
2022-09-14T15:03:52.377Z,2713.104
2022-09-14T15:08:52.422Z,1697.184
2022-09-14T15:13:52.586Z,2031.84
2022-09-14T15:18:52.638Z,1410.336
2022-09-14T15:23:52.773Z,1248.984
2022-09-14T15:28:52.846Z,2187.216
2022-09-14T15:33:52.956Z,1231.056
2022-09-14T15:38:53.104Z,974.088
2022-09-14T15:42:32.569Z,926.28
2022-09-14T15:49:49.417Z,348.102
2022-09-14T15:54:49.535Z,741.024
2022-09-14T15:59:49.587Z,684.252
2022-09-14T16:03:29.005Z,436.248
2022-09-14T16:08:38.943Z,522.9
2022-09-14T16:13:39.026Z,588.636
2022-09-14T16:18:39.171Z,475.092
2022-09-14T16:23:39.288Z,306.27
2022-09-14T16:27:44.172Z,207.666
2022-09-14T16:30:22.331Z,225.594
2022-09-14T16:35:22.030Z,312.246
2022-09-14T16:40:22.199Z,262.944
2022-09-14T16:45:22.335Z,253.98
2022-09-14T16:50:22.355Z,236.052
2022-09-14T16:55:22.468Z,239.04
2022-09-14T17:00:22.575Z,157.617
2022-09-14T17:05:22.671Z,236.052
2022-09-14T17:10:22.733Z,280.872
2022-09-14T17:15:22.901Z,171.063
2022-09-14T17:20:23.015Z,101.592
2022-09-14T17:25:23.081Z,73.579
2022-09-14T17:30:23.213Z,36.229
2022-09-14T17:35:23.326Z,13.446
2022-09-14T17:38:23.397Z,9.337
2022-09-14T17:43:22.532Z,2.614
2022-09-14T17:48:03.132Z,0.373
2022-09-14T17:59:25.727Z,0
